Time;durP1;ratioP1;P1;durP2;ratioP2;P2;SDS_P1;SDS_P2;PMS_P1;PMS_P2;Temp;Humidity;BMP_temperature;BMP_pressure;BME280_temperature;BME280_humidity;BME280_pressure;Samples;Min_cycle;Max_cycle;Signal;HPM_P1;HPM_P2
2022/05/27 00:01:17;;;;;;;7.60;3.27;;;15.00;91.20;;;;;;5074850;28;20776;-65
2022/05/27 00:03:44;;;;;;;9.10;4.47;;;14.90;91.60;;;;;;5074924;28;20440;-65
2022/05/27 00:06:11;;;;;;;9.27;4.40;;;14.90;91.60;;;;;;5074159;28;20440;-64
2022/05/27 00:08:38;;;;;;;5.97;3.37;;;14.80;91.60;;;;;;5074552;28;20539;-64
2022/05/27 00:11:05;;;;;;;5.03;2.97;;;14.70;92.20;;;;;;5074473;28;20523;-64
2022/05/27 00:13:39;;;;;;;9.03;2.50;;;14.70;92.00;;;;;;5074214;28;20571;-65
2022/05/27 00:16:07;;;;;;;4.80;1.90;;;14.70;92.00;;;;;;5074490;28;20836;-65
2022/05/27 00:18:34;;;;;;;6.50;2.13;;;14.70;91.80;;;;;;5074222;28;20439;-64
2022/05/27 00:21:01;;;;;;;6.00;2.43;;;14.70;92.00;;;;;;5074301;28;20523;-64
2022/05/27 00:23:28;;;;;;;4.30;2.30;;;14.70;91.80;;;;;;5074204;28;20523;-64
2022/05/27 00:25:55;;;;;;;3.27;2.00;;;14.70;91.80;;;;;;5074089;28;20832;-64
2022/05/27 00:28:22;;;;;;;3.23;2.10;;;14.70;91.70;;;;;;5074125;28;20444;-65
2022/05/27 00:30:49;;;;;;;9.43;2.50;;;14.60;91.60;;;;;;5074196;28;20439;-64
2022/05/27 00:33:17;;;;;;;3.27;2.20;;;14.60;91.60;;;;;;5074051;28;20583;-64
2022/05/27 00:35:44;;;;;;;3.30;1.90;;;14.60;91.70;;;;;;5074138;28;20490;-64
2022/05/27 00:38:12;;;;;;;4.17;2.93;;;14.50;91.90;;;;;;5073916;28;20526;-64
2022/05/27 00:40:41;;;;;;;7.03;2.50;;;14.40;92.30;;;;;;5073937;28;20455;-64
2022/05/27 00:43:08;;;;;;;4.70;2.57;;;14.40;92.30;;;;;;5073524;28;20931;-64
2022/05/27 00:45:39;;;;;;;5.13;2.93;;;14.30;92.30;;;;;;5073782;28;20493;-64
2022/05/27 00:48:12;;;;;;;6.23;3.97;;;14.30;92.20;;;;;;5073274;28;20549;-65
2022/05/27 00:50:44;;;;;;;5.00;2.77;;;14.20;92.30;;;;;;5073759;28;20443;-64
2022/05/27 00:53:14;;;;;;;4.13;1.70;;;14.10;92.60;;;;;;5073122;28;20536;-64
2022/05/27 00:55:47;;;;;;;2.60;1.77;;;14.10;92.90;;;;;;5073659;28;20439;-64
2022/05/27 00:58:18;;;;;;;4.00;2.20;;;14.00;93.00;;;;;;5073225;28;20485;-64
2022/05/27 01:00:45;;;;;;;5.90;2.43;;;14.00;93.00;;;;;;5073517;28;20522;-64
2022/05/27 01:03:15;;;;;;;3.87;2.13;;;14.00;93.10;;;;;;5073386;28;20501;-64
2022/05/27 01:05:45;;;;;;;5.23;2.73;;;14.10;93.10;;;;;;5073647;28;20858;-64
2022/05/27 01:08:14;;;;;;;4.63;2.97;;;14.00;93.20;;;;;;5073486;28;20487;-64
2022/05/27 01:10:47;;;;;;;4.30;2.90;;;14.00;93.20;;;;;;5073536;28;21006;-64
2022/05/27 01:13:29;;;;;;;5.27;2.40;;;14.00;93.30;;;;;;5072705;28;20517;-64
2022/05/27 01:16:10;;;;;;;3.23;1.90;;;13.90;93.30;;;;;;5073465;28;20530;-64
2022/05/27 01:22:23;;;;;;;2.87;1.93;;;13.90;92.90;;;;;;5010897;28;20422;-64
2022/05/27 01:25:45;;;;;;;3.73;2.40;;;13.90;93.00;;;;;;5011027;28;20445;-64
2022/05/27 01:28:34;;;;;;;3.70;2.00;;;13.90;93.10;;;;;;5028836;28;20496;-64
2022/05/27 01:31:10;;;;;;;3.27;2.00;;;13.90;93.00;;;;;;5069996;28;20846;-64
2022/05/27 01:33:41;;;;;;;6.83;2.70;;;13.80;92.80;;;;;;5072874;28;21033;-64
2022/05/27 01:36:20;;;;;;;3.60;2.20;;;13.80;92.60;;;;;;5073030;28;20519;-64
2022/05/27 01:38:57;;;;;;;4.37;2.30;;;13.70;92.30;;;;;;5072828;28;20447;-64
2022/05/27 01:41:29;;;;;;;3.50;2.10;;;13.60;92.20;;;;;;5072801;28;20431;-64
2022/05/27 01:44:00;;;;;;;3.80;2.27;;;13.50;91.90;;;;;;5072954;28;20955;-64
2022/05/27 01:46:34;;;;;;;3.20;2.00;;;13.40;92.00;;;;;;5072913;28;20518;-64
2022/05/27 01:49:08;;;;;;;2.80;1.80;;;13.40;92.00;;;;;;5072619;28;20464;-64
2022/05/27 01:51:39;;;;;;;3.80;2.57;;;13.30;92.20;;;;;;5072752;28;20526;-64
2022/05/27 01:54:11;;;;;;;2.67;2.00;;;13.40;92.70;;;;;;5072297;28;20487;-64
2022/05/27 01:56:42;;;;;;;6.80;2.17;;;13.40;92.80;;;;;;5072676;28;20440;-65
2022/05/27 01:59:14;;;;;;;3.13;2.40;;;13.30;92.60;;;;;;5072756;28;20527;-66
2022/05/27 02:01:46;;;;;;;3.60;2.23;;;13.20;93.20;;;;;;5072849;28;20531;-64
2022/05/27 02:04:20;;;;;;;3.33;2.20;;;13.10;93.80;;;;;;5073325;28;20515;-65
2022/05/27 02:06:50;;;;;;;4.93;3.40;;;13.10;94.10;;;;;;5076866;28;20492;-66
2022/05/27 02:09:21;;;;;;;4.60;3.13;;;13.00;94.10;;;;;;5076577;28;20947;-64
2022/05/27 02:11:52;;;;;;;3.90;2.90;;;13.00;93.90;;;;;;5076600;28;20530;-66
2022/05/27 02:14:24;;;;;;;7.20;2.80;;;12.90;94.30;;;;;;5076589;28;20545;-65
2022/05/27 02:16:58;;;;;;;6.93;3.40;;;12.90;94.60;;;;;;5076975;28;20440;-65
2022/05/27 02:19:29;;;;;;;5.43;3.70;;;12.90;94.70;;;;;;5076523;28;20515;-64
2022/05/27 02:22:00;;;;;;;5.57;3.77;;;12.90;94.80;;;;;;5076644;28;20527;-64
2022/05/27 02:24:36;;;;;;;13.93;4.03;;;12.90;94.60;;;;;;5076407;28;20498;-64
2022/05/27 02:27:07;;;;;;;4.70;2.67;;;12.90;94.30;;;;;;5076230;28;20489;-65
2022/05/27 02:29:35;;;;;;;4.17;2.63;;;12.90;94.10;;;;;;5076472;28;20542;-64
2022/05/27 02:32:09;;;;;;;3.93;2.63;;;13.00;94.20;;;;;;5076345;28;20535;-64
2022/05/27 02:37:43;;;;;;;3.60;2.60;;;12.90;94.30;;;;;;5013901;28;20774;-64
2022/05/27 02:40:15;;;;;;;3.80;2.47;;;12.90;94.10;;;;;;5013795;28;20445;-64
2022/05/27 02:43:01;;;;;;;7.27;4.10;;;12.90;94.10;;;;;;5043786;28;20527;-64
2022/05/27 02:45:36;;;;;;;4.40;3.40;;;12.80;94.30;;;;;;5076169;28;20474;-64
2022/05/27 02:48:14;;;;;;;4.47;2.87;;;12.80;94.20;;;;;;5075519;28;20558;-64
2022/05/27 02:50:46;;;;;;;3.80;2.70;;;12.80;94.10;;;;;;5075988;28;20442;-64
2022/05/27 02:53:21;;;;;;;3.67;2.23;;;12.80;93.90;;;;;;5075702;28;20993;-64
2022/05/27 02:56:00;;;;;;;7.13;3.53;;;12.80;94.00;;;;;;5075635;28;20509;-65
2022/05/27 02:58:29;;;;;;;4.70;3.03;;;12.80;93.70;;;;;;5075631;28;20846;-64
2022/05/27 03:00:56;;;;;;;5.03;2.93;;;12.80;93.50;;;;;;5075783;28;20440;-65
2022/05/27 03:03:25;;;;;;;7.37;3.63;;;12.70;93.40;;;;;;5075784;28;20450;-65
2022/05/27 03:06:12;;;;;;;9.40;4.10;;;12.70;93.60;;;;;;5075786;28;20513;-64
2022/05/27 03:08:49;;;;;;;4.97;3.57;;;12.70;93.80;;;;;;5075747;28;20451;-64
2022/05/27 03:11:24;;;;;;;4.33;3.30;;;12.70;93.80;;;;;;5075809;28;21055;-64
2022/05/27 03:14:17;;;;;;;3.47;2.65;;;12.70;93.90;;;;;;5075442;28;20567;-64
2022/05/27 03:16:56;;;;;;;5.80;3.10;;;12.60;93.80;;;;;;5053362;28;20289;-64
2022/05/27 03:19:38;;;;;;;5.90;3.30;;;12.60;93.60;;;;;;5075579;28;20439;-64
2022/05/27 03:22:16;;;;;;;4.05;3.15;;;12.60;93.50;;;;;;5075459;28;20990;-64
2022/05/27 03:25:01;;;;;;;6.97;4.40;;;12.60;93.70;;;;;;5075564;28;20225;-65
2022/05/27 03:27:36;;;;;;;6.07;3.80;;;12.60;93.80;;;;;;5075273;28;20761;-64
2022/05/27 03:30:07;;;;;;;3.57;3.07;;;12.50;93.90;;;;;;5075404;28;20523;-65
2022/05/27 03:32:44;;;;;;;5.70;3.30;;;12.40;93.80;;;;;;5075181;28;20527;-64
2022/05/27 03:35:20;;;;;;;9.57;5.30;;;12.40;93.80;;;;;;5074772;28;20554;-64
2022/05/27 03:37:53;;;;;;;6.67;5.23;;;12.40;94.00;;;;;;5075172;28;20953;-65
2022/05/27 03:40:26;;;;;;;11.80;4.67;;;12.50;94.00;;;;;;5075055;28;20444;-65
2022/05/27 03:42:54;;;;;;;12.50;5.73;;;12.40;93.80;;;;;;5075005;28;20536;-65
2022/05/27 03:45:23;;;;;;;8.60;4.80;;;12.40;93.80;;;;;;5074495;28;20493;-64
2022/05/27 03:47:52;;;;;;;7.35;3.80;;;12.40;94.00;;;;;;5074458;28;20559;-64
2022/05/27 03:50:22;;;;;;;6.33;3.50;;;12.40;93.90;;;;;;5074611;28;20731;-65
2022/05/27 03:52:51;;;;;;;4.37;3.30;;;12.30;93.90;;;;;;5074903;28;20467;-65
2022/05/27 03:55:21;;;;;;;4.95;2.85;;;12.30;94.00;;;;;;5074548;28;20965;-64
2022/05/27 03:57:48;;;;;;;6.03;3.20;;;12.30;94.20;;;;;;5074596;28;20208;-64
2022/05/27 04:00:16;;;;;;;4.80;2.97;;;12.30;94.40;;;;;;5074628;28;20193;-64
2022/05/27 04:02:44;;;;;;;4.20;2.23;;;12.40;94.60;;;;;;5074966;28;20272;-64
2022/05/27 04:05:16;;;;;;;3.17;2.30;;;12.50;94.50;;;;;;5074981;28;20515;-64
2022/05/27 04:07:45;;;;;;;3.40;2.60;;;12.60;94.90;;;;;;5074812;28;20443;-64
2022/05/27 04:10:12;;;;;;;3.00;2.03;;;12.70;94.40;;;;;;5074743;28;20963;-64
2022/05/27 04:12:39;;;;;;;4.10;3.33;;;12.70;94.40;;;;;;5074683;28;20532;-64
2022/05/27 04:15:07;;;;;;;5.13;3.10;;;12.80;94.60;;;;;;5074615;28;20529;-65
2022/05/27 04:17:34;;;;;;;5.67;3.00;;;12.80;94.20;;;;;;5074629;28;20436;-65
2022/05/27 04:20:06;;;;;;;4.50;3.10;;;12.90;94.10;;;;;;5074638;28;20490;-64
2022/05/27 04:22:33;;;;;;;5.40;2.77;;;12.80;94.30;;;;;;5074539;28;20534;-64
2022/05/27 04:25:01;;;;;;;4.60;2.30;;;12.90;94.10;;;;;;5074442;28;20463;-64
2022/05/27 04:27:29;;;;;;;3.70;2.40;;;13.00;94.20;;;;;;5073737;28;20822;-64
2022/05/27 04:29:56;;;;;;;5.20;2.93;;;13.10;94.20;;;;;;5073837;28;20428;-65
2022/05/27 04:32:25;;;;;;;4.87;2.60;;;13.20;93.80;;;;;;5074499;28;20482;-64
2022/05/27 04:34:52;;;;;;;4.83;2.30;;;13.30;94.00;;;;;;5074036;28;20479;-64
2022/05/27 04:37:20;;;;;;;5.13;2.30;;;13.40;93.90;;;;;;5074144;28;20501;-65
2022/05/27 04:39:47;;;;;;;3.70;2.53;;;13.50;93.70;;;;;;5074427;28;20525;-65
2022/05/27 04:42:15;;;;;;;3.60;3.00;;;13.50;93.90;;;;;;5073523;28;20432;-64
2022/05/27 04:44:42;;;;;;;5.97;2.60;;;13.60;94.10;;;;;;5074010;28;20790;-64
2022/05/27 04:47:11;;;;;;;4.23;2.37;;;13.70;94.30;;;;;;5073832;28;20932;-65
2022/05/27 04:49:54;;;;;;;3.23;2.53;;;13.70;94.30;;;;;;5074014;28;20440;-64
2022/05/27 04:52:23;;;;;;;5.37;3.23;;;13.80;94.50;;;;;;5073674;28;20786;-64
2022/05/27 04:54:51;;;;;;;5.60;2.07;;;13.90;94.50;;;;;;5073854;28;20519;-64
2022/05/27 04:57:22;;;;;;;4.70;2.47;;;14.00;93.80;;;;;;5073755;28;20518;-65
2022/05/27 04:59:50;;;;;;;4.63;2.40;;;14.10;94.00;;;;;;5073950;28;20539;-64
2022/05/27 05:02:20;;;;;;;4.40;2.50;;;14.20;93.80;;;;;;5073710;28;20497;-65
2022/05/27 05:04:47;;;;;;;6.97;4.23;;;14.30;93.20;;;;;;5073609;28;20466;-65
2022/05/27 05:07:14;;;;;;;9.00;3.87;;;14.30;92.80;;;;;;5073501;28;20997;-65
2022/05/27 05:09:43;;;;;;;6.77;3.70;;;14.30;92.70;;;;;;5073691;28;20447;-64
2022/05/27 05:12:11;;;;;;;4.80;2.70;;;14.30;93.50;;;;;;5073430;28;20530;-64
2022/05/27 05:14:40;;;;;;;5.53;2.17;;;14.30;93.60;;;;;;5073346;28;20570;-64
2022/05/27 05:17:08;;;;;;;3.50;2.17;;;14.40;93.40;;;;;;5073434;28;20444;-64
2022/05/27 05:19:35;;;;;;;3.00;2.10;;;14.40;93.50;;;;;;5073344;28;20527;-64
2022/05/27 05:22:02;;;;;;;7.23;3.93;;;14.50;93.90;;;;;;5073376;28;20472;-64
2022/05/27 05:24:29;;;;;;;11.60;7.10;;;14.60;94.00;;;;;;5073258;28;20792;-64
2022/05/27 05:26:56;;;;;;;16.03;8.13;;;14.70;93.60;;;;;;5073156;28;20463;-64
2022/05/27 05:29:23;;;;;;;6.40;3.07;;;14.80;93.50;;;;;;5073425;28;20771;-64
2022/05/27 05:31:51;;;;;;;6.20;3.10;;;14.80;92.60;;;;;;5073187;28;20475;-64
2022/05/27 05:34:18;;;;;;;6.17;3.10;;;14.80;92.50;;;;;;5073235;28;20450;-64
2022/05/27 05:36:45;;;;;;;3.63;2.37;;;14.90;92.30;;;;;;5073104;28;20471;-64
2022/05/27 05:39:12;;;;;;;3.47;2.37;;;15.00;92.30;;;;;;5072944;28;20535;-64
2022/05/27 05:41:41;;;;;;;3.20;1.80;;;14.90;91.60;;;;;;5072949;28;20523;-64
2022/05/27 05:44:10;;;;;;;4.60;2.63;;;14.90;91.90;;;;;;5073107;28;20436;-64
2022/05/27 05:46:39;;;;;;;9.17;3.27;;;15.00;92.30;;;;;;5073171;28;20448;-64
2022/05/27 05:49:07;;;;;;;5.73;3.50;;;15.00;92.10;;;;;;5072979;28;20510;-64
2022/05/27 05:51:35;;;;;;;5.67;2.40;;;15.10;92.30;;;;;;5073192;28;20502;-64
2022/05/27 05:54:02;;;;;;;3.60;2.20;;;15.20;91.80;;;;;;5073042;28;20439;-64
2022/05/27 05:56:31;;;;;;;3.77;2.37;;;15.40;91.90;;;;;;5072979;28;20482;-64
2022/05/27 05:58:58;;;;;;;2.80;1.60;;;15.50;92.10;;;;;;5072905;28;20522;-64
2022/05/27 06:01:26;;;;;;;2.80;1.80;;;15.60;91.40;;;;;;5072748;28;20527;-65
2022/05/27 06:03:52;;;;;;;2.60;1.57;;;15.70;91.30;;;;;;5072936;28;20494;-65
2022/05/27 06:06:21;;;;;;;4.57;2.50;;;15.80;90.90;;;;;;5072986;28;20435;-66
2022/05/27 06:08:48;;;;;;;3.93;1.93;;;15.90;90.90;;;;;;5073087;28;20468;-64
2022/05/27 06:11:15;;;;;;;3.03;1.80;;;16.00;91.00;;;;;;5072832;28;20447;-64
2022/05/27 06:13:42;;;;;;;3.10;1.90;;;16.20;90.20;;;;;;5072273;28;20490;-64
2022/05/27 06:16:09;;;;;;;3.53;2.10;;;16.30;90.40;;;;;;5072994;28;20918;-65
2022/05/27 06:18:36;;;;;;;8.60;2.10;;;16.50;90.70;;;;;;5072542;28;20443;-65
2022/05/27 06:21:04;;;;;;;3.87;2.00;;;16.60;90.60;;;;;;5072812;28;20526;-64
2022/05/27 06:23:32;;;;;;;3.13;1.87;;;16.80;89.70;;;;;;5072821;28;20526;-64
2022/05/27 06:26:01;;;;;;;3.03;1.50;;;16.70;86.20;;;;;;5072794;28;20523;-64
2022/05/27 06:36:43;;;;;;;3.20;1.80;;;17.20;85.10;;;;;;5072764;28;20575;-65
2022/05/27 06:39:13;;;;;;;3.93;2.50;;;17.30;83.30;;;;;;5072580;28;20447;-65
2022/05/27 06:41:40;;;;;;;2.37;1.23;;;17.40;83.40;;;;;;5072349;28;20893;-64
2022/05/27 06:44:08;;;;;;;2.57;1.73;;;17.50;83.70;;;;;;5072559;28;20526;-64
2022/05/27 06:46:35;;;;;;;5.93;1.30;;;17.60;83.70;;;;;;5072596;28;20513;-65
2022/05/27 06:49:02;;;;;;;3.30;1.40;;;17.70;83.10;;;;;;5072431;28;20467;-64
2022/05/27 06:51:30;;;;;;;2.33;1.40;;;17.70;83.00;;;;;;5073314;28;20436;-65
2022/05/27 06:53:57;;;;;;;3.53;1.97;;;17.80;81.00;;;;;;5076217;28;20451;-64
2022/05/27 06:56:26;;;;;;;2.80;1.60;;;17.70;77.80;;;;;;5076192;28;20493;-65
2022/05/27 06:58:53;;;;;;;3.67;1.77;;;17.70;78.70;;;;;;5076122;28;20530;-65
2022/05/27 07:01:20;;;;;;;2.63;1.20;;;17.70;77.40;;;;;;5076173;28;20789;-67
2022/05/27 07:03:47;;;;;;;3.50;1.20;;;17.70;78.80;;;;;;5076072;28;20519;-66
2022/05/27 07:06:15;;;;;;;2.80;1.30;;;17.70;78.30;;;;;;5076090;28;20467;-64
2022/05/27 07:08:41;;;;;;;4.77;1.40;;;17.90;80.10;;;;;;5075962;28;20440;-64
2022/05/27 07:11:08;;;;;;;4.10;2.27;;;18.00;81.30;;;;;;5075809;28;20442;-64
2022/05/27 07:13:37;;;;;;;2.13;0.93;;;18.20;83.20;;;;;;5075507;28;20440;-64
2022/05/27 07:16:06;;;;;;;2.47;1.33;;;18.30;82.60;;;;;;5075838;28;20586;-64
2022/05/27 07:18:33;;;;;;;5.20;1.57;;;18.50;82.20;;;;;;5075845;28;20947;-64
2022/05/27 07:21:01;;;;;;;2.77;1.23;;;18.60;81.50;;;;;;5075672;28;20440;-65
2022/05/27 07:23:28;;;;;;;4.17;1.43;;;18.70;79.50;;;;;;5075639;28;20529;-65
2022/05/27 07:25:55;;;;;;;3.47;1.50;;;18.80;79.00;;;;;;5075260;28;20444;-66
2022/05/27 07:28:22;;;;;;;1.90;1.33;;;18.90;79.20;;;;;;5075335;28;20489;-65
2022/05/27 07:30:51;;;;;;;3.07;1.30;;;19.10;79.10;;;;;;5075634;28;20436;-65
2022/05/27 07:33:18;;;;;;;3.50;1.40;;;19.20;78.30;;;;;;5075487;28;20447;-66
2022/05/27 07:35:45;;;;;;;4.20;1.10;;;19.30;77.60;;;;;;5075471;28;20570;-65
2022/05/27 07:38:12;;;;;;;5.50;1.83;;;19.50;78.40;;;;;;5075461;28;20933;-65
2022/05/27 07:40:39;;;;;;;6.93;1.67;;;19.60;77.90;;;;;;5075114;28;20532;-65
2022/05/27 07:43:09;;;;;;;1.93;1.00;;;19.70;76.70;;;;;;5074968;28;20440;-65
2022/05/27 07:45:37;;;;;;;2.23;1.10;;;19.80;76.50;;;;;;5075049;28;20447;-64
2022/05/27 07:48:08;;;;;;;2.10;1.20;;;20.00;75.00;;;;;;5074637;28;20559;-65
2022/05/27 07:50:35;;;;;;;2.27;1.40;;;20.10;74.50;;;;;;5075016;28;20768;-65
2022/05/27 07:53:01;;;;;;;3.20;1.10;;;20.20;74.50;;;;;;5074936;28;20523;-69
2022/05/27 07:55:29;;;;;;;3.37;1.53;;;20.30;73.20;;;;;;5074590;28;20479;-65
2022/05/27 07:57:56;;;;;;;2.70;1.50;;;20.40;72.50;;;;;;5074546;28;20452;-65
2022/05/27 08:00:25;;;;;;;2.43;1.20;;;20.50;71.80;;;;;;5074724;28;20519;-65
2022/05/27 08:02:52;;;;;;;3.80;1.70;;;20.60;71.30;;;;;;5074483;28;20475;-65
2022/05/27 08:05:23;;;;;;;3.27;1.40;;;20.70;70.70;;;;;;5074866;28;20530;-65
2022/05/27 08:07:52;;;;;;;2.27;1.10;;;20.80;70.10;;;;;;5074384;28;20543;-65
2022/05/27 08:10:23;;;;;;;2.07;1.10;;;20.90;69.80;;;;;;5074562;28;20531;-65
2022/05/27 08:12:50;;;;;;;3.57;1.40;;;21.10;70.40;;;;;;5074666;28;20471;-65
2022/05/27 08:15:17;;;;;;;2.93;1.50;;;21.20;69.20;;;;;;5073965;28;20519;-65
2022/05/27 08:17:44;;;;;;;2.80;1.90;;;21.30;69.60;;;;;;5074351;28;20946;-66
2022/05/27 08:20:14;;;;;;;2.80;0.97;;;21.40;69.20;;;;;;5074462;28;20942;-66
2022/05/27 08:22:42;;;;;;;1.93;1.10;;;21.50;68.60;;;;;;5074337;28;20436;-65
2022/05/27 08:25:09;;;;;;;4.47;1.50;;;21.70;69.10;;;;;;5074137;28;20447;-65
2022/05/27 08:27:36;;;;;;;2.43;1.23;;;21.80;67.10;;;;;;5074163;28;20444;-65
2022/05/27 08:30:04;;;;;;;2.10;1.07;;;21.90;66.90;;;;;;5074144;28;20501;-65
2022/05/27 08:32:31;;;;;;;2.17;1.17;;;22.00;66.40;;;;;;5074207;28;20551;-65
2022/05/27 08:40:36;;;;;;;2.70;1.30;;;22.30;64.00;;;;;;5073751;28;20428;-65
2022/05/27 08:43:11;;;;;;;3.93;1.70;;;22.30;63.10;;;;;;5073840;28;20530;-65
2022/05/27 08:45:48;;;;;;;6.13;1.10;;;22.40;63.80;;;;;;5071591;28;20493;-64
2022/05/27 08:48:16;;;;;;;7.77;1.33;;;22.60;64.60;;;;;;5072501;28;20525;-64
2022/05/27 08:50:47;;;;;;;2.83;1.00;;;22.60;63.50;;;;;;5071958;28;20440;-66
2022/05/27 08:53:26;;;;;;;3.13;1.30;;;22.80;63.30;;;;;;5071877;28;20486;-64
2022/05/27 09:01:34;;;;;;;2.00;0.83;;;23.50;60.30;;;;;;5072058;28;20811;-64
2022/05/27 09:04:08;;;;;;;2.67;0.93;;;23.70;59.10;;;;;;5072284;28;20927;-65
2022/05/27 09:06:39;;;;;;;2.03;1.00;;;23.70;57.50;;;;;;5071778;28;20447;-64
2022/05/27 09:09:12;;;;;;;2.13;0.80;;;23.80;57.70;;;;;;5071734;28;20553;-64
2022/05/27 09:12:03;;;;;;;2.63;1.23;;;23.90;57.90;;;;;;5071431;28;20482;-65
2022/05/27 09:14:33;;;;;;;2.07;1.07;;;24.00;57.40;;;;;;5071358;28;20800;-66
2022/05/27 09:17:03;;;;;;;2.73;1.00;;;24.00;56.50;;;;;;5071250;28;20511;-65
2022/05/27 09:19:44;;;;;;;3.60;1.50;;;24.10;56.70;;;;;;5071803;28;20432;-64
2022/05/27 09:22:18;;;;;;;1.80;0.87;;;24.10;56.10;;;;;;5072155;28;20843;-65
2022/05/27 09:24:57;;;;;;;5.13;1.27;;;24.10;55.40;;;;;;5072939;28;20530;-66
2022/05/27 09:27:36;;;;;;;2.70;0.90;;;24.30;55.10;;;;;;5072744;28;20792;-64
2022/05/27 09:30:06;;;;;;;4.87;1.23;;;24.40;54.90;;;;;;5072812;28;20942;-65
2022/05/27 09:32:42;;;;;;;2.70;1.00;;;24.50;54.60;;;;;;5072721;28;20438;-65
2022/05/27 09:35:13;;;;;;;4.17;1.27;;;24.70;54.40;;;;;;5072656;28;20440;-64
2022/05/27 09:37:45;;;;;;;3.03;0.93;;;24.70;54.60;;;;;;5072613;28;20489;-64
2022/05/27 09:40:17;;;;;;;2.90;1.20;;;24.70;54.20;;;;;;5072958;28;20464;-65
2022/05/27 09:42:51;;;;;;;2.30;1.03;;;24.80;53.70;;;;;;5072258;28;20435;-64
2022/05/27 09:45:18;;;;;;;5.00;0.90;;;24.80;53.30;;;;;;5072596;28;20951;-66
2022/05/27 09:47:46;;;;;;;3.00;1.27;;;24.90;52.80;;;;;;5072391;28;20523;-65
2022/05/27 09:50:25;;;;;;;3.93;0.90;;;25.10;53.40;;;;;;5072559;28;20502;-64
2022/05/27 09:52:56;;;;;;;2.73;0.87;;;25.20;52.00;;;;;;5071421;28;20448;-65
2022/05/27 09:55:29;;;;;;;1.90;0.80;;;25.20;51.90;;;;;;5072532;28;20459;-66
2022/05/27 09:57:59;;;;;;;2.30;1.30;;;25.20;52.00;;;;;;5072182;28;20487;-65
2022/05/27 10:00:44;;;;;;;2.10;0.90;;;25.30;52.00;;;;;;5072022;28;20446;-65
2022/05/27 10:03:36;;;;;;;2.20;0.90;;;25.20;51.70;;;;;;5072450;28;20444;-64
2022/05/27 10:06:08;;;;;;;3.57;0.93;;;25.30;51.50;;;;;;5072476;28;20441;-65
2022/05/27 10:08:40;;;;;;;2.03;0.90;;;25.30;51.50;;;;;;5072289;28;20795;-64
2022/05/27 10:11:20;;;;;;;2.67;0.87;;;25.30;50.70;;;;;;5072392;28;20538;-64
2022/05/27 10:13:49;;;;;;;2.67;0.90;;;25.30;50.10;;;;;;5072083;28;20438;-67
2022/05/27 10:16:24;;;;;;;2.20;0.90;;;25.30;50.30;;;;;;5072210;28;20481;-65
2022/05/27 10:19:10;;;;;;;2.23;0.90;;;25.30;50.70;;;;;;5072508;28;20429;-65
2022/05/27 10:21:52;;;;;;;4.70;0.90;;;25.50;49.30;;;;;;5072374;28;20963;-64
2022/05/27 10:24:25;;;;;;;2.27;1.03;;;25.50;49.00;;;;;;5072515;28;20511;-65
2022/05/27 10:27:06;;;;;;;3.20;0.90;;;25.50;48.10;;;;;;5074968;28;20500;-65
2022/05/27 10:29:35;;;;;;;3.13;0.90;;;25.60;47.90;;;;;;5076041;28;20469;-64
2022/05/27 10:32:02;;;;;;;2.10;0.87;;;25.70;47.30;;;;;;5075975;28;20437;-65
2022/05/27 10:34:42;;;;;;;4.53;1.30;;;25.70;47.10;;;;;;5076090;28;20849;-65
2022/05/27 10:37:17;;;;;;;6.30;1.00;;;25.70;47.60;;;;;;5075555;28;20488;-64
2022/05/27 10:40:00;;;;;;;1.83;0.80;;;25.70;47.20;;;;;;5075979;28;20444;-65
2022/05/27 10:42:39;;;;;;;2.40;0.90;;;25.70;47.20;;;;;;5075644;28;20540;-64
2022/05/27 10:45:19;;;;;;;2.13;0.97;;;25.90;46.10;;;;;;5075789;28;20442;-65
2022/05/27 10:48:11;;;;;;;2.80;1.20;;;26.00;46.50;;;;;;5075683;28;20475;-65
2022/05/27 10:50:44;;;;;;;3.57;1.30;;;26.10;45.50;;;;;;5075692;28;20445;-65
2022/05/27 10:53:35;;;;;;;5.83;1.10;;;26.20;45.40;;;;;;5075473;28;20794;-65
2022/05/27 10:56:13;;;;;;;2.97;1.33;;;26.30;45.50;;;;;;5073993;28;20440;-64
2022/05/27 11:02:07;;;;;;;3.07;1.00;;;26.40;45.00;;;;;;5041862;28;20539;-65
2022/05/27 11:05:09;;;;;;;2.50;1.00;;;26.40;45.00;;;;;;5070702;28;20471;-65
2022/05/27 11:07:44;;;;;;;1.90;0.80;;;26.40;44.30;;;;;;5073370;28;20434;-64
2022/05/27 11:10:25;;;;;;;2.03;0.80;;;26.30;44.40;;;;;;5074699;28;20443;-64
2022/05/27 11:16:12;;;;;;;2.60;1.10;;;26.20;44.30;;;;;;5074079;28;20453;-66
2022/05/27 11:18:54;;;;;;;5.20;0.90;;;26.20;44.60;;;;;;5074088;28;20492;-64
2022/05/27 11:21:39;;;;;;;5.77;0.87;;;26.20;44.40;;;;;;5074097;28;20435;-65
2022/05/27 11:24:25;;;;;;;2.20;0.80;;;26.20;44.00;;;;;;5073936;28;20440;-64
2022/05/27 11:27:01;;;;;;;2.57;0.93;;;26.10;44.40;;;;;;5073742;28;20468;-65
2022/05/27 11:29:51;;;;;;;4.30;0.90;;;26.10;44.70;;;;;;5073471;28;20785;-65
2022/05/27 11:32:32;;;;;;;2.27;1.00;;;26.10;45.00;;;;;;5073833;28;20505;-64
2022/05/27 11:35:13;;;;;;;1.97;0.77;;;26.00;44.70;;;;;;5073588;28;20439;-64
2022/05/27 11:38:01;;;;;;;2.10;0.90;;;26.10;44.40;;;;;;5072540;28;20487;-64
2022/05/27 11:40:39;;;;;;;3.10;1.13;;;26.10;44.60;;;;;;5073564;28;20467;-65
2022/05/27 11:43:38;;;;;;;2.00;1.00;;;26.10;45.10;;;;;;5073637;28;20442;-65
2022/05/27 11:46:34;;;;;;;2.53;0.80;;;26.10;45.20;;;;;;5074700;28;20443;-66
2022/05/27 11:49:19;;;;;;;1.90;0.80;;;26.00;45.00;;;;;;5074504;28;20472;-64
2022/05/27 11:51:58;;;;;;;3.23;1.07;;;26.10;45.00;;;;;;5074672;28;20928;-65
2022/05/27 11:54:39;;;;;;;2.60;1.10;;;26.00;44.30;;;;;;5053424;28;20498;-64
2022/05/27 11:57:24;;;;;;;1.87;0.83;;;26.00;44.00;;;;;;5053315;28;20574;-64
2022/05/27 11:59:56;;;;;;;1.70;0.70;;;25.90;43.50;;;;;;5052982;28;20445;-64
2022/05/27 12:02:34;;;;;;;2.93;1.00;;;25.90;43.70;;;;;;5052594;28;20436;-66
2022/05/27 12:05:12;;;;;;;2.00;0.73;;;25.90;44.20;;;;;;5053585;28;20442;-65
2022/05/27 12:07:45;;;;;;;2.33;0.93;;;25.90;44.60;;;;;;5053112;28;20829;-64
2022/05/27 12:10:24;;;;;;;1.90;0.90;;;25.90;42.60;;;;;;5052920;28;20454;-64
2022/05/27 12:12:58;;;;;;;1.80;0.70;;;25.80;42.70;;;;;;5052946;28;20535;-66
2022/05/27 12:15:31;;;;;;;4.10;1.00;;;25.80;44.30;;;;;;5053248;28;20523;-65
2022/05/27 12:18:00;;;;;;;2.50;0.90;;;25.70;43.40;;;;;;5052515;28;20578;-65
2022/05/27 12:20:31;;;;;;;3.50;0.90;;;25.70;43.80;;;;;;5052750;28;20448;-65
2022/05/27 12:23:01;;;;;;;3.50;1.10;;;25.80;44.70;;;;;;5053038;28;20531;-67
2022/05/27 12:25:33;;;;;;;3.30;1.00;;;25.90;44.80;;;;;;5052819;28;20447;-65
2022/05/27 12:28:03;;;;;;;5.93;1.00;;;25.90;44.60;;;;;;5053014;28;20432;-66
2022/05/27 12:30:33;;;;;;;2.60;0.90;;;25.90;44.30;;;;;;5052595;28;20529;-65
2022/05/27 12:33:01;;;;;;;2.00;0.87;;;25.90;42.90;;;;;;5052148;28;20444;-65
2022/05/27 12:35:47;;;;;;;1.80;0.70;;;25.80;42.90;;;;;;5052286;28;20436;-66
2022/05/27 12:38:17;;;;;;;7.97;1.23;;;25.80;43.20;;;;;;5052313;28;20514;-65
2022/05/27 12:40:51;;;;;;;3.70;1.20;;;25.70;43.10;;;;;;5051857;28;20933;-65
2022/05/27 12:43:26;;;;;;;2.10;0.70;;;25.70;44.10;;;;;;5052355;28;20505;-65
2022/05/27 12:45:56;;;;;;;1.70;0.70;;;25.70;44.90;;;;;;5052484;28;20442;-65
2022/05/27 12:48:32;;;;;;;3.53;1.00;;;25.80;44.20;;;;;;5052303;28;20511;-65
2022/05/27 12:51:03;;;;;;;2.73;0.90;;;25.90;44.60;;;;;;5071073;28;20466;-65
2022/05/27 12:53:49;;;;;;;4.00;1.07;;;25.90;42.90;;;;;;5072336;28;20489;-65
2022/05/27 13:02:53;;;;;;;2.20;0.80;;;25.60;42.00;;;;;;5072335;28;20483;-65
2022/05/27 13:05:24;;;;;;;3.97;0.70;;;25.40;41.80;;;;;;5072374;28;20932;-66
2022/05/27 13:08:11;;;;;;;2.87;0.70;;;25.30;41.60;;;;;;5072889;28;20443;-65
2022/05/27 13:10:54;;;;;;;2.00;0.67;;;25.30;43.60;;;;;;5073546;28;20790;-65
2022/05/27 13:13:32;;;;;;;2.70;0.70;;;25.40;44.20;;;;;;5072857;28;20504;-65
2022/05/27 13:16:10;;;;;;;2.90;0.70;;;25.40;44.50;;;;;;5073276;28;20857;-65
2022/05/27 13:18:43;;;;;;;3.00;0.90;;;25.40;44.00;;;;;;5073057;28;20490;-65
2022/05/27 13:21:20;;;;;;;8.60;2.40;;;25.40;44.00;;;;;;5073081;28;20487;-65
2022/05/27 13:23:59;;;;;;;6.40;1.20;;;25.30;43.80;;;;;;5073003;28;20446;-65
2022/05/27 13:26:41;;;;;;;2.73;1.00;;;25.40;44.00;;;;;;5071847;28;20514;-66
2022/05/27 13:29:28;;;;;;;4.40;1.10;;;25.30;43.10;;;;;;5072797;28;20438;-65
2022/05/27 13:31:59;;;;;;;1.90;1.07;;;25.20;44.00;;;;;;5073110;28;20450;-66
2022/05/27 13:34:44;;;;;;;2.77;1.00;;;25.20;44.50;;;;;;5072642;28;20446;-66
2022/05/27 13:37:20;;;;;;;2.83;0.83;;;25.20;43.20;;;;;;5072766;28;20834;-65
2022/05/27 13:39:53;;;;;;;2.30;0.90;;;25.20;44.40;;;;;;5072989;28;20471;-66
2022/05/27 13:42:29;;;;;;;3.17;0.80;;;25.20;44.10;;;;;;5072804;28;20485;-66
2022/05/27 13:45:01;;;;;;;4.90;1.13;;;25.10;42.70;;;;;;5072808;28;20458;-65
2022/05/27 13:47:31;;;;;;;2.93;1.10;;;25.10;44.60;;;;;;5072715;28;20473;-65
2022/05/27 13:49:58;;;;;;;3.63;0.77;;;25.10;43.90;;;;;;5068702;28;20447;-65
2022/05/27 13:52:28;;;;;;;2.60;1.10;;;25.10;44.00;;;;;;5069128;28;20532;-65